sensor_id;sensor_type;location;lat;lon;timestamp;P1;P2;P0
64138;PMS5003;50435;43.700;-79.318;2023-02-28T00:00:09;7;4;
64138;PMS5003;50435;43.700;-79.318;2023-02-28T00:02:39;7;5;
64138;PMS5003;50435;43.700;-79.318;2023-02-28T00:05:08;3;3;
64138;PMS5003;50435;43.700;-79.318;2023-02-28T00:07:37;3;3;
64138;PMS5003;50435;43.700;-79.318;2023-02-28T00:10:06;5;5;
64138;PMS5003;50435;43.700;-79.318;2023-02-28T00:12:35;7;5;
64138;PMS5003;50435;43.700;-79.318;2023-02-28T00:15:05;4;4;
64138;PMS5003;50435;43.700;-79.318;2023-02-28T00:17:34;5;5;
64138;PMS5003;50435;43.700;-79.318;2023-02-28T00:20:03;3;2;
64138;PMS5003;50435;43.700;-79.318;2023-02-28T00:22:32;4;3;
64138;PMS5003;50435;43.700;-79.318;2023-02-28T00:25:00;5;5;
64138;PMS5003;50435;43.700;-79.318;2023-02-28T00:27:27;4;4;
64138;PMS5003;50435;43.700;-79.318;2023-02-28T00:29:54;4;4;
64138;PMS5003;50435;43.700;-79.318;2023-02-28T00:32:22;3;3;
64138;PMS5003;50435;43.700;-79.318;2023-02-28T00:34:49;3;3;
64138;PMS5003;50435;43.700;-79.318;2023-02-28T00:37:16;3;3;
64138;PMS5003;50435;43.700;-79.318;2023-02-28T00:39:44;4;4;
64138;PMS5003;50435;43.700;-79.318;2023-02-28T00:42:11;3;3;
64138;PMS5003;50435;43.700;-79.318;2023-02-28T00:44:39;3;3;
64138;PMS5003;50435;43.700;-79.318;2023-02-28T00:47:06;7;7;
64138;PMS5003;50435;43.700;-79.318;2023-02-28T00:49:33;5;4;
64138;PMS5003;50435;43.700;-79.318;2023-02-28T00:52:01;3;3;
64138;PMS5003;50435;43.700;-79.318;2023-02-28T00:54:28;5;5;
64138;PMS5003;50435;43.700;-79.318;2023-02-28T00:56:56;7;5;
64138;PMS5003;50435;43.700;-79.318;2023-02-28T00:59:23;8;5;
64138;PMS5003;50435;43.700;-79.318;2023-02-28T01:01:51;5;4;
64138;PMS5003;50435;43.700;-79.318;2023-02-28T01:04:19;5;5;
64138;PMS5003;50435;43.700;-79.318;2023-02-28T01:06:46;5;3;
64138;PMS5003;50435;43.700;-79.318;2023-02-28T01:09:14;3;3;
64138;PMS5003;50435;43.700;-79.318;2023-02-28T01:11:41;3;3;
64138;PMS5003;50435;43.700;-79.318;2023-02-28T01:14:11;4;3;
64138;PMS5003;50435;43.700;-79.318;2023-02-28T01:16:44;3;3;
64138;PMS5003;50435;43.700;-79.318;2023-02-28T01:19:12;3;3;
64138;PMS5003;50435;43.700;-79.318;2023-02-28T01:21:39;5;5;
64138;PMS5003;50435;43.700;-79.318;2023-02-28T01:24:07;4;4;
64138;PMS5003;50435;43.700;-79.318;2023-02-28T01:26:34;5;4;
64138;PMS5003;50435;43.700;-79.318;2023-02-28T01:29:02;3;3;
64138;PMS5003;50435;43.700;-79.318;2023-02-28T01:31:30;5;5;
64138;PMS5003;50435;43.700;-79.318;2023-02-28T01:33:57;5;5;
64138;PMS5003;50435;43.700;-79.318;2023-02-28T01:36:25;8;8;
64138;PMS5003;50435;43.700;-79.318;2023-02-28T01:38:52;3;3;
64138;PMS5003;50435;43.700;-79.318;2023-02-28T01:41:21;5;4;
64138;PMS5003;50435;43.700;-79.318;2023-02-28T01:43:53;5;4;
64138;PMS5003;50435;43.700;-79.318;2023-02-28T01:46:23;3;3;
64138;PMS5003;50435;43.700;-79.318;2023-02-28T01:48:52;3;3;
64138;PMS5003;50435;43.700;-79.318;2023-02-28T01:51:26;4;4;
64138;PMS5003;50435;43.700;-79.318;2023-02-28T01:53:59;4;4;
64138;PMS5003;50435;43.700;-79.318;2023-02-28T01:56:30;5;3;
64138;PMS5003;50435;43.700;-79.318;2023-02-28T01:59:02;4;4;
64138;PMS5003;50435;43.700;-79.318;2023-02-28T02:01:30;7;4;
64138;PMS5003;50435;43.700;-79.318;2023-02-28T02:03:59;5;4;
64138;PMS5003;50435;43.700;-79.318;2023-02-28T02:06:29;3;3;
64138;PMS5003;50435;43.700;-79.318;2023-02-28T02:09:04;4;4;
64138;PMS5003;50435;43.700;-79.318;2023-02-28T02:11:31;5;4;
64138;PMS5003;50435;43.700;-79.318;2023-02-28T02:14:10;5;4;
64138;PMS5003;50435;43.700;-79.318;2023-02-28T02:16:54;4;4;
64138;PMS5003;50435;43.700;-79.318;2023-02-28T02:19:39;4;3;
64138;PMS5003;50435;43.700;-79.318;2023-02-28T02:22:30;5;5;
64138;PMS5003;50435;43.700;-79.318;2023-02-28T02:25:18;5;3;
64138;PMS5003;50435;43.700;-79.318;2023-02-28T02:27:58;4;4;
64138;PMS5003;50435;43.700;-79.318;2023-02-28T02:29:55;4;4;
64138;PMS5003;50435;43.700;-79.318;2023-02-28T02:33:16;5;5;
64138;PMS5003;50435;43.700;-79.318;2023-02-28T02:35:37;5;5;
64138;PMS5003;50435;43.700;-79.318;2023-02-28T02:38:10;5;4;
64138;PMS5003;50435;43.700;-79.318;2023-02-28T02:40:46;4;4;
64138;PMS5003;50435;43.700;-79.318;2023-02-28T02:43:22;4;4;
64138;PMS5003;50435;43.700;-79.318;2023-02-28T02:45:55;4;4;
64138;PMS5003;50435;43.700;-79.318;2023-02-28T02:48:26;7;5;
64138;PMS5003;50435;43.700;-79.318;2023-02-28T02:50:58;2;2;
64138;PMS5003;50435;43.700;-79.318;2023-02-28T02:53:29;5;5;
64138;PMS5003;50435;43.700;-79.318;2023-02-28T02:56:00;3;3;
64138;PMS5003;50435;43.700;-79.318;2023-02-28T02:58:30;5;5;
64138;PMS5003;50435;43.700;-79.318;2023-02-28T03:01:03;3;3;
64138;PMS5003;50435;43.700;-79.318;2023-02-28T03:03:32;5;4;
64138;PMS5003;50435;43.700;-79.318;2023-02-28T03:06:00;3;3;
64138;PMS5003;50435;43.700;-79.318;2023-02-28T03:08:29;4;4;
64138;PMS5003;50435;43.700;-79.318;2023-02-28T03:11:00;5;5;
64138;PMS5003;50435;43.700;-79.318;2023-02-28T03:13:42;4;3;
64138;PMS5003;50435;43.700;-79.318;2023-02-28T03:16:26;4;4;
64138;PMS5003;50435;43.700;-79.318;2023-02-28T03:19:02;4;4;
64138;PMS5003;50435;43.700;-79.318;2023-02-28T03:21:40;3;3;
64138;PMS5003;50435;43.700;-79.318;2023-02-28T03:24:15;4;3;
64138;PMS5003;50435;43.700;-79.318;2023-02-28T03:26:52;7;5;
64138;PMS5003;50435;43.700;-79.318;2023-02-28T03:29:27;2;2;
64138;PMS5003;50435;43.700;-79.318;2023-02-28T03:31:59;5;4;
64138;PMS5003;50435;43.700;-79.318;2023-02-28T03:34:32;7;5;
64138;PMS5003;50435;43.700;-79.318;2023-02-28T03:37:04;4;4;
64138;PMS5003;50435;43.700;-79.318;2023-02-28T03:39:36;3;3;
64138;PMS5003;50435;43.700;-79.318;2023-02-28T03:42:09;7;4;
64138;PMS5003;50435;43.700;-79.318;2023-02-28T03:44:41;4;4;
64138;PMS5003;50435;43.700;-79.318;2023-02-28T03:47:12;7;3;
64138;PMS5003;50435;43.700;-79.318;2023-02-28T03:49:45;4;4;
64138;PMS5003;50435;43.700;-79.318;2023-02-28T03:52:15;3;3;
64138;PMS5003;50435;43.700;-79.318;2023-02-28T03:54:47;3;2;
64138;PMS5003;50435;43.700;-79.318;2023-02-28T03:57:20;5;5;
64138;PMS5003;50435;43.700;-79.318;2023-02-28T03:59:54;4;3;
64138;PMS5003;50435;43.700;-79.318;2023-02-28T04:02:27;3;3;
64138;PMS5003;50435;43.700;-79.318;2023-02-28T04:04:54;4;4;
64138;PMS5003;50435;43.700;-79.318;2023-02-28T04:07:22;4;4;
64138;PMS5003;50435;43.700;-79.318;2023-02-28T04:09:49;5;5;
64138;PMS5003;50435;43.700;-79.318;2023-02-28T04:12:16;4;4;
64138;PMS5003;50435;43.700;-79.318;2023-02-28T04:14:44;4;4;
64138;PMS5003;50435;43.700;-79.318;2023-02-28T04:17:11;9;4;
64138;PMS5003;50435;43.700;-79.318;2023-02-28T04:19:39;8;5;
64138;PMS5003;50435;43.700;-79.318;2023-02-28T04:22:07;4;4;
64138;PMS5003;50435;43.700;-79.318;2023-02-28T04:24:35;4;4;
64138;PMS5003;50435;43.700;-79.318;2023-02-28T04:27:03;5;5;
64138;PMS5003;50435;43.700;-79.318;2023-02-28T04:29:31;4;4;
64138;PMS5003;50435;43.700;-79.318;2023-02-28T04:31:59;5;5;
64138;PMS5003;50435;43.700;-79.318;2023-02-28T04:34:28;8;5;
64138;PMS5003;50435;43.700;-79.318;2023-02-28T04:36:57;7;7;
64138;PMS5003;50435;43.700;-79.318;2023-02-28T04:39:26;5;5;
64138;PMS5003;50435;43.700;-79.318;2023-02-28T04:41:53;4;3;
64138;PMS5003;50435;43.700;-79.318;2023-02-28T04:44:20;7;7;
64138;PMS5003;50435;43.700;-79.318;2023-02-28T04:46:48;5;5;
64138;PMS5003;50435;43.700;-79.318;2023-02-28T04:49:16;10;7;
64138;PMS5003;50435;43.700;-79.318;2023-02-28T04:51:43;7;4;
64138;PMS5003;50435;43.700;-79.318;2023-02-28T04:54:11;5;5;
64138;PMS5003;50435;43.700;-79.318;2023-02-28T04:56:38;5;5;
64138;PMS5003;50435;43.700;-79.318;2023-02-28T04:59:06;3;3;
64138;PMS5003;50435;43.700;-79.318;2023-02-28T05:01:33;5;4;
64138;PMS5003;50435;43.700;-79.318;2023-02-28T05:04:02;3;3;
64138;PMS5003;50435;43.700;-79.318;2023-02-28T05:06:31;4;4;
64138;PMS5003;50435;43.700;-79.318;2023-02-28T05:08:59;10;9;
64138;PMS5003;50435;43.700;-79.318;2023-02-28T05:11:27;4;4;
64138;PMS5003;50435;43.700;-79.318;2023-02-28T05:13:56;4;3;
64138;PMS5003;50435;43.700;-79.318;2023-02-28T05:16:23;3;3;
64138;PMS5003;50435;43.700;-79.318;2023-02-28T05:18:51;4;4;
64138;PMS5003;50435;43.700;-79.318;2023-02-28T05:21:23;3;3;
64138;PMS5003;50435;43.700;-79.318;2023-02-28T05:23:54;2;2;
64138;PMS5003;50435;43.700;-79.318;2023-02-28T05:26:23;7;7;
64138;PMS5003;50435;43.700;-79.318;2023-02-28T05:28:51;5;5;
64138;PMS5003;50435;43.700;-79.318;2023-02-28T05:31:20;5;5;
64138;PMS5003;50435;43.700;-79.318;2023-02-28T05:33:48;3;3;
64138;PMS5003;50435;43.700;-79.318;2023-02-28T05:36:15;5;5;
64138;PMS5003;50435;43.700;-79.318;2023-02-28T05:38:45;9;9;
64138;PMS5003;50435;43.700;-79.318;2023-02-28T05:41:13;3;3;
64138;PMS5003;50435;43.700;-79.318;2023-02-28T05:43:42;3;3;
64138;PMS5003;50435;43.700;-79.318;2023-02-28T05:46:09;5;5;
64138;PMS5003;50435;43.700;-79.318;2023-02-28T05:48:39;2;2;
64138;PMS5003;50435;43.700;-79.318;2023-02-28T05:51:08;4;4;
64138;PMS5003;50435;43.700;-79.318;2023-02-28T05:53:36;3;3;
64138;PMS5003;50435;43.700;-79.318;2023-02-28T05:56:04;4;4;
64138;PMS5003;50435;43.700;-79.318;2023-02-28T05:58:32;4;4;
64138;PMS5003;50435;43.700;-79.318;2023-02-28T06:01:00;3;3;
64138;PMS5003;50435;43.700;-79.318;2023-02-28T06:03:48;3;3;
64138;PMS5003;50435;43.700;-79.318;2023-02-28T06:06:15;5;3;
64138;PMS5003;50435;43.700;-79.318;2023-02-28T06:08:42;3;3;
64138;PMS5003;50435;43.700;-79.318;2023-02-28T06:11:10;5;5;
64138;PMS5003;50435;43.700;-79.318;2023-02-28T06:13:37;2;2;
64138;PMS5003;50435;43.700;-79.318;2023-02-28T06:16:05;7;4;
64138;PMS5003;50435;43.700;-79.318;2023-02-28T06:18:33;8;4;
64138;PMS5003;50435;43.700;-79.318;2023-02-28T06:21:00;5;5;
64138;PMS5003;50435;43.700;-79.318;2023-02-28T06:23:27;4;4;
64138;PMS5003;50435;43.700;-79.318;2023-02-28T06:25:55;4;4;
64138;PMS5003;50435;43.700;-79.318;2023-02-28T06:28:22;5;3;
64138;PMS5003;50435;43.700;-79.318;2023-02-28T06:30:51;4;4;
64138;PMS5003;50435;43.700;-79.318;2023-02-28T06:33:18;7;5;
64138;PMS5003;50435;43.700;-79.318;2023-02-28T06:35:46;3;3;
64138;PMS5003;50435;43.700;-79.318;2023-02-28T06:38:16;7;4;
64138;PMS5003;50435;43.700;-79.318;2023-02-28T06:40:43;7;5;
64138;PMS5003;50435;43.700;-79.318;2023-02-28T06:43:11;7;7;
64138;PMS5003;50435;43.700;-79.318;2023-02-28T06:45:41;7;5;
64138;PMS5003;50435;43.700;-79.318;2023-02-28T06:48:09;4;4;
64138;PMS5003;50435;43.700;-79.318;2023-02-28T06:50:36;5;5;
64138;PMS5003;50435;43.700;-79.318;2023-02-28T06:53:04;4;4;
64138;PMS5003;50435;43.700;-79.318;2023-02-28T06:55:31;5;4;
64138;PMS5003;50435;43.700;-79.318;2023-02-28T06:57:59;5;5;
64138;PMS5003;50435;43.700;-79.318;2023-02-28T07:00:26;4;4;
64138;PMS5003;50435;43.700;-79.318;2023-02-28T07:02:54;5;5;
64138;PMS5003;50435;43.700;-79.318;2023-02-28T07:05:21;5;5;
64138;PMS5003;50435;43.700;-79.318;2023-02-28T07:07:48;5;5;
64138;PMS5003;50435;43.700;-79.318;2023-02-28T07:10:16;9;8;
64138;PMS5003;50435;43.700;-79.318;2023-02-28T07:12:44;7;7;
64138;PMS5003;50435;43.700;-79.318;2023-02-28T07:15:11;11;10;
64138;PMS5003;50435;43.700;-79.318;2023-02-28T07:17:38;7;7;
64138;PMS5003;50435;43.700;-79.318;2023-02-28T07:20:06;7;7;
64138;PMS5003;50435;43.700;-79.318;2023-02-28T07:22:35;8;8;
64138;PMS5003;50435;43.700;-79.318;2023-02-28T07:25:02;8;7;
64138;PMS5003;50435;43.700;-79.318;2023-02-28T07:27:30;7;7;
64138;PMS5003;50435;43.700;-79.318;2023-02-28T07:29:58;8;8;
64138;PMS5003;50435;43.700;-79.318;2023-02-28T07:32:25;10;10;
64138;PMS5003;50435;43.700;-79.318;2023-02-28T07:34:53;10;10;
64138;PMS5003;50435;43.700;-79.318;2023-02-28T07:37:20;10;10;
64138;PMS5003;50435;43.700;-79.318;2023-02-28T07:39:47;12;9;
64138;PMS5003;50435;43.700;-79.318;2023-02-28T07:42:15;9;9;
64138;PMS5003;50435;43.700;-79.318;2023-02-28T07:44:42;11;9;
64138;PMS5003;50435;43.700;-79.318;2023-02-28T07:47:10;10;10;
64138;PMS5003;50435;43.700;-79.318;2023-02-28T07:49:38;11;9;
64138;PMS5003;50435;43.700;-79.318;2023-02-28T07:52:06;10;10;
64138;PMS5003;50435;43.700;-79.318;2023-02-28T07:54:34;12;11;
64138;PMS5003;50435;43.700;-79.318;2023-02-28T07:57:01;8;8;
64138;PMS5003;50435;43.700;-79.318;2023-02-28T07:59:29;10;10;
64138;PMS5003;50435;43.700;-79.318;2023-02-28T08:01:57;10;9;
64138;PMS5003;50435;43.700;-79.318;2023-02-28T08:04:25;8;8;
64138;PMS5003;50435;43.700;-79.318;2023-02-28T08:06:52;13;11;
64138;PMS5003;50435;43.700;-79.318;2023-02-28T08:09:20;10;10;
64138;PMS5003;50435;43.700;-79.318;2023-02-28T08:11:47;10;9;
64138;PMS5003;50435;43.700;-79.318;2023-02-28T08:14:15;10;10;
64138;PMS5003;50435;43.700;-79.318;2023-02-28T08:16:42;10;10;
64138;PMS5003;50435;43.700;-79.318;2023-02-28T08:19:09;9;9;
64138;PMS5003;50435;43.700;-79.318;2023-02-28T08:21:37;10;10;
64138;PMS5003;50435;43.700;-79.318;2023-02-28T08:24:04;9;8;
64138;PMS5003;50435;43.700;-79.318;2023-02-28T08:26:33;9;9;
64138;PMS5003;50435;43.700;-79.318;2023-02-28T08:29:00;11;10;
64138;PMS5003;50435;43.700;-79.318;2023-02-28T08:31:27;12;11;
64138;PMS5003;50435;43.700;-79.318;2023-02-28T08:33:54;8;8;
64138;PMS5003;50435;43.700;-79.318;2023-02-28T08:36:22;13;12;
64138;PMS5003;50435;43.700;-79.318;2023-02-28T08:38:51;14;12;
64138;PMS5003;50435;43.700;-79.318;2023-02-28T08:41:18;11;9;
64138;PMS5003;50435;43.700;-79.318;2023-02-28T08:43:46;8;8;
64138;PMS5003;50435;43.700;-79.318;2023-02-28T08:46:13;13;12;
64138;PMS5003;50435;43.700;-79.318;2023-02-28T08:48:41;13;11;
64138;PMS5003;50435;43.700;-79.318;2023-02-28T08:51:10;11;11;
64138;PMS5003;50435;43.700;-79.318;2023-02-28T08:53:39;10;10;
64138;PMS5003;50435;43.700;-79.318;2023-02-28T08:56:07;11;11;
64138;PMS5003;50435;43.700;-79.318;2023-02-28T08:58:36;12;12;
64138;PMS5003;50435;43.700;-79.318;2023-02-28T09:01:08;12;11;
64138;PMS5003;50435;43.700;-79.318;2023-02-28T09:03:37;11;11;
64138;PMS5003;50435;43.700;-79.318;2023-02-28T09:06:05;12;12;
64138;PMS5003;50435;43.700;-79.318;2023-02-28T09:08:32;10;10;
64138;PMS5003;50435;43.700;-79.318;2023-02-28T09:11:00;11;11;
64138;PMS5003;50435;43.700;-79.318;2023-02-28T09:13:28;12;12;
64138;PMS5003;50435;43.700;-79.318;2023-02-28T09:15:57;11;11;
64138;PMS5003;50435;43.700;-79.318;2023-02-28T09:18:25;12;12;
64138;PMS5003;50435;43.700;-79.318;2023-02-28T09:20:53;13;13;
64138;PMS5003;50435;43.700;-79.318;2023-02-28T09:23:20;12;12;
64138;PMS5003;50435;43.700;-79.318;2023-02-28T09:25:48;13;13;
64138;PMS5003;50435;43.700;-79.318;2023-02-28T09:28:17;12;12;
64138;PMS5003;50435;43.700;-79.318;2023-02-28T09:30:46;16;13;
64138;PMS5003;50435;43.700;-79.318;2023-02-28T09:33:15;11;11;
64138;PMS5003;50435;43.700;-79.318;2023-02-28T09:35:44;12;12;
64138;PMS5003;50435;43.700;-79.318;2023-02-28T09:38:11;11;11;
64138;PMS5003;50435;43.700;-79.318;2023-02-28T09:40:42;9;9;
64138;PMS5003;50435;43.700;-79.318;2023-02-28T09:43:16;13;13;
64138;PMS5003;50435;43.700;-79.318;2023-02-28T09:45:48;12;12;
64138;PMS5003;50435;43.700;-79.318;2023-02-28T09:48:20;12;12;
64138;PMS5003;50435;43.700;-79.318;2023-02-28T09:50:52;13;13;
64138;PMS5003;50435;43.700;-79.318;2023-02-28T09:53:28;11;11;
64138;PMS5003;50435;43.700;-79.318;2023-02-28T09:55:58;12;12;
64138;PMS5003;50435;43.700;-79.318;2023-02-28T09:58:32;10;10;
64138;PMS5003;50435;43.700;-79.318;2023-02-28T10:01:12;13;12;
64138;PMS5003;50435;43.700;-79.318;2023-02-28T10:03:49;13;13;
64138;PMS5003;50435;43.700;-79.318;2023-02-28T10:06:26;16;15;
64138;PMS5003;50435;43.700;-79.318;2023-02-28T10:09:01;13;12;
64138;PMS5003;50435;43.700;-79.318;2023-02-28T10:11:32;13;13;
64138;PMS5003;50435;43.700;-79.318;2023-02-28T10:14:03;12;11;
64138;PMS5003;50435;43.700;-79.318;2023-02-28T10:16:38;13;12;
64138;PMS5003;50435;43.700;-79.318;2023-02-28T10:19:10;12;12;
64138;PMS5003;50435;43.700;-79.318;2023-02-28T10:21:44;12;12;
64138;PMS5003;50435;43.700;-79.318;2023-02-28T10:24:19;16;15;
64138;PMS5003;50435;43.700;-79.318;2023-02-28T10:26:56;10;10;
64138;PMS5003;50435;43.700;-79.318;2023-02-28T10:29:27;13;11;
64138;PMS5003;50435;43.700;-79.318;2023-02-28T10:31:58;13;11;
64138;PMS5003;50435;43.700;-79.318;2023-02-28T10:34:29;12;11;
64138;PMS5003;50435;43.700;-79.318;2023-02-28T10:36:56;13;11;
64138;PMS5003;50435;43.700;-79.318;2023-02-28T10:39:34;15;13;
64138;PMS5003;50435;43.700;-79.318;2023-02-28T10:42:03;12;10;
64138;PMS5003;50435;43.700;-79.318;2023-02-28T10:44:31;12;12;
64138;PMS5003;50435;43.700;-79.318;2023-02-28T10:46:58;15;11;
64138;PMS5003;50435;43.700;-79.318;2023-02-28T10:49:26;12;12;
64138;PMS5003;50435;43.700;-79.318;2023-02-28T10:51:54;15;12;
64138;PMS5003;50435;43.700;-79.318;2023-02-28T10:54:24;13;13;
64138;PMS5003;50435;43.700;-79.318;2023-02-28T10:57:28;13;13;
64138;PMS5003;50435;43.700;-79.318;2023-02-28T11:00:07;10;10;
64138;PMS5003;50435;43.700;-79.318;2023-02-28T11:02:42;13;13;
64138;PMS5003;50435;43.700;-79.318;2023-02-28T11:05:26;11;11;
64138;PMS5003;50435;43.700;-79.318;2023-02-28T11:07:57;15;13;
64138;PMS5003;50435;43.700;-79.318;2023-02-28T11:10:31;11;11;
64138;PMS5003;50435;43.700;-79.318;2023-02-28T11:12:59;16;16;
64138;PMS5003;50435;43.700;-79.318;2023-02-28T11:15:27;13;11;
64138;PMS5003;50435;43.700;-79.318;2023-02-28T11:17:57;18;17;
64138;PMS5003;50435;43.700;-79.318;2023-02-28T11:20:27;12;12;
64138;PMS5003;50435;43.700;-79.318;2023-02-28T11:22:57;12;11;
64138;PMS5003;50435;43.700;-79.318;2023-02-28T11:25:29;13;11;
64138;PMS5003;50435;43.700;-79.318;2023-02-28T11:27:58;17;12;
64138;PMS5003;50435;43.700;-79.318;2023-02-28T11:30:29;16;15;
64138;PMS5003;50435;43.700;-79.318;2023-02-28T11:32:59;16;11;
64138;PMS5003;50435;43.700;-79.318;2023-02-28T11:35:28;10;9;
64138;PMS5003;50435;43.700;-79.318;2023-02-28T11:37:59;11;11;
64138;PMS5003;50435;43.700;-79.318;2023-02-28T11:40:30;17;12;
64138;PMS5003;50435;43.700;-79.318;2023-02-28T11:43:07;13;13;
64138;PMS5003;50435;43.700;-79.318;2023-02-28T11:45:52;17;13;
64138;PMS5003;50435;43.700;-79.318;2023-02-28T11:48:33;11;11;
64138;PMS5003;50435;43.700;-79.318;2023-02-28T11:51:10;16;13;
64138;PMS5003;50435;43.700;-79.318;2023-02-28T11:53:50;11;10;
64138;PMS5003;50435;43.700;-79.318;2023-02-28T11:56:29;10;10;
64138;PMS5003;50435;43.700;-79.318;2023-02-28T11:59:04;12;11;
64138;PMS5003;50435;43.700;-79.318;2023-02-28T12:01:47;11;11;
64138;PMS5003;50435;43.700;-79.318;2023-02-28T12:04:35;11;11;
64138;PMS5003;50435;43.700;-79.318;2023-02-28T12:07:15;13;13;
64138;PMS5003;50435;43.700;-79.318;2023-02-28T12:09:54;18;17;
64138;PMS5003;50435;43.700;-79.318;2023-02-28T12:12:35;13;11;
64138;PMS5003;50435;43.700;-79.318;2023-02-28T12:15:16;15;11;
64138;PMS5003;50435;43.700;-79.318;2023-02-28T12:18:03;13;12;
64138;PMS5003;50435;43.700;-79.318;2023-02-28T12:20:46;13;12;
64138;PMS5003;50435;43.700;-79.318;2023-02-28T12:23:36;11;10;
64138;PMS5003;50435;43.700;-79.318;2023-02-28T12:26:16;13;13;
64138;PMS5003;50435;43.700;-79.318;2023-02-28T12:28:52;13;13;
64138;PMS5003;50435;43.700;-79.318;2023-02-28T12:31:24;13;13;
64138;PMS5003;50435;43.700;-79.318;2023-02-28T12:33:56;13;13;
64138;PMS5003;50435;43.700;-79.318;2023-02-28T12:36:29;15;15;
64138;PMS5003;50435;43.700;-79.318;2023-02-28T12:38:58;15;13;
64138;PMS5003;50435;43.700;-79.318;2023-02-28T12:41:33;13;12;
64138;PMS5003;50435;43.700;-79.318;2023-02-28T12:44:07;15;15;
64138;PMS5003;50435;43.700;-79.318;2023-02-28T12:46:41;17;16;
64138;PMS5003;50435;43.700;-79.318;2023-02-28T12:49:12;19;16;
64138;PMS5003;50435;43.700;-79.318;2023-02-28T12:51:43;19;16;
64138;PMS5003;50435;43.700;-79.318;2023-02-28T12:54:14;18;16;
64138;PMS5003;50435;43.700;-79.318;2023-02-28T12:56:53;15;15;
64138;PMS5003;50435;43.700;-79.318;2023-02-28T12:59:27;17;17;
64138;PMS5003;50435;43.700;-79.318;2023-02-28T13:02:18;19;17;
64138;PMS5003;50435;43.700;-79.318;2023-02-28T13:06:05;20;19;
64138;PMS5003;50435;43.700;-79.318;2023-02-28T13:09:01;21;17;
64138;PMS5003;50435;43.700;-79.318;2023-02-28T13:11:32;22;17;
64138;PMS5003;50435;43.700;-79.318;2023-02-28T13:14:06;13;13;
64138;PMS5003;50435;43.700;-79.318;2023-02-28T13:16:52;19;18;
64138;PMS5003;50435;43.700;-79.318;2023-02-28T13:19:24;20;18;
64138;PMS5003;50435;43.700;-79.318;2023-02-28T13:21:54;18;17;
64138;PMS5003;50435;43.700;-79.318;2023-02-28T13:24:40;23;21;
64138;PMS5003;50435;43.700;-79.318;2023-02-28T13:27:20;25;20;
64138;PMS5003;50435;43.700;-79.318;2023-02-28T13:29:49;25;24;
64138;PMS5003;50435;43.700;-79.318;2023-02-28T13:32:27;25;23;
64138;PMS5003;50435;43.700;-79.318;2023-02-28T13:32:40;24;21;
64138;PMS5003;50435;43.700;-79.318;2023-02-28T13:35:36;25;24;
64138;PMS5003;50435;43.700;-79.318;2023-02-28T13:38:15;25;24;
64138;PMS5003;50435;43.700;-79.318;2023-02-28T13:40:48;28;25;
64138;PMS5003;50435;43.700;-79.318;2023-02-28T13:43:16;21;19;
64138;PMS5003;50435;43.700;-79.318;2023-02-28T13:46:03;31;27;
64138;PMS5003;50435;43.700;-79.318;2023-02-28T13:48:35;24;23;
64138;PMS5003;50435;43.700;-79.318;2023-02-28T13:51:53;28;24;
64138;PMS5003;50435;43.700;-79.318;2023-02-28T13:54:32;25;23;
64138;PMS5003;50435;43.700;-79.318;2023-02-28T13:57:14;23;23;
64138;PMS5003;50435;43.700;-79.318;2023-02-28T13:59:52;27;25;
64138;PMS5003;50435;43.700;-79.318;2023-02-28T14:02:37;23;21;
64138;PMS5003;50435;43.700;-79.318;2023-02-28T14:05:16;29;26;
64138;PMS5003;50435;43.700;-79.318;2023-02-28T14:07:46;25;25;
64138;PMS5003;50435;43.700;-79.318;2023-02-28T14:10:21;26;23;
64138;PMS5003;50435;43.700;-79.318;2023-02-28T14:12:53;23;23;
64138;PMS5003;50435;43.700;-79.318;2023-02-28T14:15:27;29;24;
64138;PMS5003;50435;43.700;-79.318;2023-02-28T14:18:16;22;21;
64138;PMS5003;50435;43.700;-79.318;2023-02-28T14:20:47;27;25;
64138;PMS5003;50435;43.700;-79.318;2023-02-28T14:23:21;25;21;
64138;PMS5003;50435;43.700;-79.318;2023-02-28T14:26:05;20;20;
64138;PMS5003;50435;43.700;-79.318;2023-02-28T14:28:50;25;21;
64138;PMS5003;50435;43.700;-79.318;2023-02-28T14:31:33;25;21;
64138;PMS5003;50435;43.700;-79.318;2023-02-28T14:34:05;19;19;
64138;PMS5003;50435;43.700;-79.318;2023-02-28T14:36:49;23;21;
64138;PMS5003;50435;43.700;-79.318;2023-02-28T14:39:20;19;18;
64138;PMS5003;50435;43.700;-79.318;2023-02-28T14:41:50;20;19;
64138;PMS5003;50435;43.700;-79.318;2023-02-28T14:44:19;23;21;
64138;PMS5003;50435;43.700;-79.318;2023-02-28T14:46:49;18;18;
64138;PMS5003;50435;43.700;-79.318;2023-02-28T14:49:19;17;17;
64138;PMS5003;50435;43.700;-79.318;2023-02-28T14:51:50;17;17;
64138;PMS5003;50435;43.700;-79.318;2023-02-28T14:54:29;17;16;
64138;PMS5003;50435;43.700;-79.318;2023-02-28T14:56:57;21;17;
64138;PMS5003;50435;43.700;-79.318;2023-02-28T14:59:26;23;20;
64138;PMS5003;50435;43.700;-79.318;2023-02-28T15:02:29;27;22;
64138;PMS5003;50435;43.700;-79.318;2023-02-28T15:05:01;18;17;
64138;PMS5003;50435;43.700;-79.318;2023-02-28T15:07:43;17;17;
64138;PMS5003;50435;43.700;-79.318;2023-02-28T15:10:14;13;12;
64138;PMS5003;50435;43.700;-79.318;2023-02-28T15:12:45;14;13;
64138;PMS5003;50435;43.700;-79.318;2023-02-28T15:15:17;19;16;
64138;PMS5003;50435;43.700;-79.318;2023-02-28T15:17:46;14;12;
64138;PMS5003;50435;43.700;-79.318;2023-02-28T15:20:19;14;14;
64138;PMS5003;50435;43.700;-79.318;2023-02-28T15:22:47;14;13;
64138;PMS5003;50435;43.700;-79.318;2023-02-28T15:25:19;13;13;
64138;PMS5003;50435;43.700;-79.318;2023-02-28T15:27:49;13;13;
64138;PMS5003;50435;43.700;-79.318;2023-02-28T15:30:20;14;12;
64138;PMS5003;50435;43.700;-79.318;2023-02-28T15:30:21;13;12;
64138;PMS5003;50435;43.700;-79.318;2023-02-28T15:33:18;11;11;
64138;PMS5003;50435;43.700;-79.318;2023-02-28T15:35:47;11;11;
64138;PMS5003;50435;43.700;-79.318;2023-02-28T15:38:17;11;11;
64138;PMS5003;50435;43.700;-79.318;2023-02-28T15:40:51;12;11;
64138;PMS5003;50435;43.700;-79.318;2023-02-28T15:43:23;11;10;
64138;PMS5003;50435;43.700;-79.318;2023-02-28T15:45:53;13;10;
64138;PMS5003;50435;43.700;-79.318;2023-02-28T15:48:25;11;9;
64138;PMS5003;50435;43.700;-79.318;2023-02-28T15:50:55;14;13;
64138;PMS5003;50435;43.700;-79.318;2023-02-28T15:53:26;10;8;
64138;PMS5003;50435;43.700;-79.318;2023-02-28T15:55:59;12;9;
64138;PMS5003;50435;43.700;-79.318;2023-02-28T15:58:29;6;6;
64138;PMS5003;50435;43.700;-79.318;2023-02-28T16:01:01;11;9;
64138;PMS5003;50435;43.700;-79.318;2023-02-28T16:03:37;8;8;
64138;PMS5003;50435;43.700;-79.318;2023-02-28T16:06:09;8;8;
64138;PMS5003;50435;43.700;-79.318;2023-02-28T16:08:57;8;8;
64138;PMS5003;50435;43.700;-79.318;2023-02-28T16:11:24;6;6;
64138;PMS5003;50435;43.700;-79.318;2023-02-28T16:13:52;5;5;
64138;PMS5003;50435;43.700;-79.318;2023-02-28T16:16:21;5;5;
64138;PMS5003;50435;43.700;-79.318;2023-02-28T16:18:51;6;6;
64138;PMS5003;50435;43.700;-79.318;2023-02-28T16:21:19;4;4;
64138;PMS5003;50435;43.700;-79.318;2023-02-28T16:23:46;6;5;
64138;PMS5003;50435;43.700;-79.318;2023-02-28T16:26:16;4;4;